Weather at Maramureș International Airport

Public forecast

Using degrees Celsius for public forecast. Weather courtesy of forecast.io.

Current aviation weather report (METAR) for Maramureș International Airport

Retrieved 2020/10/01 03:30 UTC (2 minutes ago):

LRBM 010330Z AUTO 20003KT 6000 FEW002 SCT007 BKN016 12/11 Q1003

Aviation forecast (TAF) for Maramureș International Airport

Forecast is more than 12 hours old.

Retrieved 2014/07/19 18:48 UTC (6 years ago):

TAF LRBM 191800Z 1918/2024 CNL